Time;durP1;ratioP1;P1;durP2;ratioP2;P2;SDS_P1;SDS_P2;PMS_P1;PMS_P2;Temp;Humidity;BMP_temperature;BMP_pressure;BME280_temperature;BME280_humidity;BME280_pressure;Samples;Min_cycle;Max_cycle;Signal;HPM_P1;HPM_P2
2022/09/28 00:01:40;;;;;;;2.20;0.65;;;14.70;69.20;;;;;;2622324;52;21017;-77
2022/09/28 00:04:07;;;;;;;4.07;0.65;;;14.70;69.20;;;;;;2350564;53;20933;-77
2022/09/28 00:06:33;;;;;;;2.53;0.85;;;14.70;69.30;;;;;;2500215;52;21040;-77
2022/09/28 00:09:00;;;;;;;2.72;0.73;;;14.70;69.40;;;;;;2589052;52;20952;-76
2022/09/28 00:11:27;;;;;;;2.92;0.90;;;14.70;69.40;;;;;;2413829;52;20940;-77
2022/09/28 00:14:02;;;;;;;2.80;0.82;;;14.70;69.40;;;;;;2346360;53;21851;-77
2022/09/28 00:16:31;;;;;;;3.70;0.75;;;14.70;69.40;;;;;;2344451;53;21453;-77
2022/09/28 00:19:22;;;;;;;3.25;0.80;;;14.70;69.40;;;;;;2349360;53;21018;-77
2022/09/28 00:22:03;;;;;;;3.53;0.70;;;14.70;69.30;;;;;;2352232;53;21357;-76
2022/09/28 00:24:29;;;;;;;3.05;0.80;;;14.70;69.30;;;;;;2345437;53;20993;-77
2022/09/28 00:27:01;;;;;;;3.75;1.10;;;14.60;69.20;;;;;;2348637;53;20929;-77
2022/09/28 00:29:32;;;;;;;6.78;0.98;;;14.60;69.30;;;;;;2357296;53;20937;-77
2022/09/28 00:32:41;;;;;;;3.28;0.70;;;14.60;69.30;;;;;;2590680;52;20941;-77
2022/09/28 00:35:08;;;;;;;3.05;0.80;;;14.70;69.30;;;;;;2350775;53;21000;-79
2022/09/28 00:37:34;;;;;;;3.15;0.77;;;14.60;69.30;;;;;;2470849;53;20941;-78
2022/09/28 00:40:01;;;;;;;5.87;1.30;;;14.70;69.40;;;;;;2357618;53;20933;-77
2022/09/28 00:42:27;;;;;;;2.45;0.70;;;14.60;69.30;;;;;;2383057;53;20941;-77
2022/09/28 00:44:55;;;;;;;4.03;0.80;;;14.60;69.30;;;;;;2357254;53;20960;-77
2022/09/28 00:47:36;;;;;;;3.50;0.80;;;14.60;69.40;;;;;;2343610;53;20949;-80
2022/09/28 00:50:08;;;;;;;;;;;14.60;69.40;;;;;;2362736;53;21374;-78
2022/09/28 00:52:53;;;;;;;4.22;0.75;;;14.60;69.10;;;;;;2344057;53;20062;-77
2022/09/28 00:56:20;;;;;;;3.15;0.80;;;14.70;69.30;;;;;;2344507;53;21845;-78
2022/09/28 00:58:50;;;;;;;3.42;0.60;;;14.60;69.20;;;;;;2343501;53;21535;-77
2022/09/28 01:01:16;;;;;;;3.17;0.85;;;14.60;69.40;;;;;;2343220;53;20927;-77
2022/09/28 01:03:47;;;;;;;3.50;0.90;;;14.60;69.40;;;;;;2348768;53;20923;-77
2022/09/28 01:06:26;;;;;;;3.03;0.70;;;14.60;69.40;;;;;;2348074;54;20940;-78
2022/09/28 01:08:54;;;;;;;3.50;0.98;;;14.60;69.40;;;;;;2343348;53;21004;-77
2022/09/28 01:11:21;;;;;;;2.92;0.90;;;14.60;69.50;;;;;;2346444;53;21006;-78
2022/09/28 01:13:51;;;;;;;4.35;1.08;;;14.60;69.60;;;;;;2342199;53;20974;-78
2022/09/28 01:24:58;;;;;;;3.45;0.88;;;14.60;69.60;;;;;;2544401;52;20954;-77
2022/09/28 01:27:48;;;;;;;2.28;0.55;;;14.70;69.10;;;;;;2347669;53;20937;-78
2022/09/28 01:30:16;;;;;;;2.95;0.80;;;14.70;69.30;;;;;;2342569;54;21798;-78
2022/09/28 01:33:22;;;;;;;1.30;0.60;;;14.70;69.40;;;;;;2343695;54;21060;-78
2022/09/28 01:36:13;;;;;;;2.42;0.70;;;14.70;69.50;;;;;;2415340;52;21491;-78
2022/09/28 01:39:43;;;;;;;2.42;0.75;;;14.70;69.60;;;;;;2341542;53;20997;-77
2022/09/28 01:42:23;;;;;;;2.80;0.60;;;14.70;69.60;;;;;;2347128;53;20941;-78
2022/09/28 01:44:50;;;;;;;3.00;0.57;;;14.70;69.60;;;;;;2451416;52;21046;-78
2022/09/28 01:47:20;;;;;;;3.75;0.73;;;14.70;69.70;;;;;;2369976;53;21708;-79
2022/09/28 01:50:10;;;;;;;3.53;0.77;;;14.70;69.80;;;;;;2370951;53;20918;-78
2022/09/28 01:53:40;;;;;;;1.85;0.60;;;14.70;69.80;;;;;;2407478;52;20946;-78
2022/09/28 01:56:17;;;;;;;2.75;0.88;;;14.70;69.60;;;;;;2407554;52;20945;-78
2022/09/28 01:58:55;;;;;;;3.50;0.80;;;14.70;69.70;;;;;;2372513;52;20997;-78
2022/09/28 02:02:05;;;;;;;3.97;0.82;;;14.70;69.70;;;;;;2370216;53;20970;-77
2022/09/28 02:04:35;;;;;;;2.95;0.68;;;14.70;69.60;;;;;;2393262;52;20978;-77
2022/09/28 02:07:12;;;;;;;3.20;0.88;;;14.70;69.80;;;;;;2373054;53;20942;-78
2022/09/28 02:09:50;;;;;;;4.82;0.90;;;14.70;69.80;;;;;;2370695;53;20975;-78
2022/09/28 02:12:26;;;;;;;2.67;0.68;;;14.70;69.80;;;;;;2371296;53;20910;-78
2022/09/28 02:14:54;;;;;;;4.15;0.70;;;14.70;69.70;;;;;;2372169;53;20994;-78
2022/09/28 02:17:20;;;;;;;1.65;0.60;;;14.70;69.70;;;;;;2365177;53;20914;-77
2022/09/28 02:19:47;;;;;;;3.22;0.70;;;14.70;69.70;;;;;;2371763;53;20934;-77
2022/09/28 02:22:24;;;;;;;3.90;0.70;;;14.70;69.70;;;;;;2624096;52;21050;-76
2022/09/28 02:25:20;;;;;;;1.83;0.62;;;14.70;69.60;;;;;;2360569;53;21106;-78
2022/09/28 02:28:10;;;;;;;2.72;0.80;;;14.70;69.50;;;;;;2383154;53;20906;-78
2022/09/28 02:30:49;;;;;;;3.30;0.70;;;14.70;69.50;;;;;;2418374;53;21148;-78
2022/09/28 02:33:37;;;;;;;2.85;0.70;;;14.70;69.50;;;;;;2412571;52;21420;-77
2022/09/28 02:36:03;;;;;;;3.00;0.60;;;14.70;69.50;;;;;;2452550;52;20957;-78
2022/09/28 02:38:30;;;;;;;2.97;0.73;;;14.70;69.60;;;;;;2364376;53;20938;-79
2022/09/28 02:42:33;;;;;;;2.62;0.60;;;14.70;69.60;;;;;;2366770;53;21006;-77
2022/09/28 02:45:44;;;;;;;2.22;0.60;;;14.70;69.30;;;;;;2371348;53;21022;-78
2022/09/28 02:48:46;;;;;;;2.85;0.62;;;14.70;69.40;;;;;;2360208;54;21055;-77
2022/09/28 02:52:45;;;;;;;3.60;0.68;;;14.70;69.40;;;;;;2369597;53;20962;-77
2022/09/28 02:58:50;;;;;;;2.25;0.60;;;14.70;69.30;;;;;;2479728;52;20939;-80
2022/09/28 03:02:02;;;;;;;2.42;0.50;;;14.70;69.10;;;;;;2356127;53;21004;-78
2022/09/28 03:06:11;;;;;;;1.65;0.57;;;14.70;69.20;;;;;;2356604;54;21004;-77
2022/09/28 03:08:51;;;;;;;2.60;0.60;;;14.70;69.40;;;;;;2339486;53;20970;-78
2022/09/28 03:11:24;;;;;;;2.85;0.50;;;14.70;69.40;;;;;;2486646;52;20999;-77
2022/09/28 03:13:50;;;;;;;1.85;0.60;;;14.70;69.50;;;;;;2339313;54;21414;-78
2022/09/28 03:16:17;;;;;;;4.05;0.70;;;14.60;69.50;;;;;;2346953;53;20887;-80
2022/09/28 03:18:43;;;;;;;2.33;0.65;;;14.60;69.50;;;;;;2622560;52;20977;-78
2022/09/28 03:21:10;;;;;;;2.50;0.60;;;14.60;69.60;;;;;;2588947;52;20993;-79
2022/09/28 03:23:37;;;;;;;2.65;0.70;;;14.60;69.60;;;;;;2401519;52;20993;-79
2022/09/28 03:26:03;;;;;;;2.47;0.50;;;14.60;69.60;;;;;;2373235;53;21776;-79
2022/09/28 03:28:33;;;;;;;1.83;0.50;;;14.60;69.70;;;;;;2400142;53;20930;-80
2022/09/28 03:30:59;;;;;;;3.37;0.68;;;14.60;69.70;;;;;;2369018;53;21004;-81
2022/09/28 03:33:25;;;;;;;2.28;0.60;;;14.60;69.80;;;;;;2355427;53;20942;-81
2022/09/28 03:35:52;;;;;;;2.37;0.60;;;14.60;69.80;;;;;;2371461;53;20950;-79
2022/09/28 03:38:19;;;;;;;4.15;0.50;;;14.60;69.80;;;;;;2435713;52;21411;-82
2022/09/28 03:40:55;;;;;;;1.90;0.43;;;14.60;69.80;;;;;;2385621;52;21784;-80
2022/09/28 03:43:21;;;;;;;1.95;0.80;;;14.60;69.80;;;;;;2370537;53;21021;-80
2022/09/28 03:45:54;;;;;;;2.20;0.68;;;14.60;69.90;;;;;;2423587;52;20987;-79
2022/09/28 03:48:37;;;;;;;1.08;0.50;;;14.60;69.90;;;;;;2371261;52;20945;-79
2022/09/28 03:51:04;;;;;;;2.00;0.50;;;14.60;69.90;;;;;;2368573;53;21225;-78
2022/09/28 03:53:32;;;;;;;3.50;0.60;;;14.60;69.90;;;;;;2370803;53;20911;-78
2022/09/28 03:56:12;;;;;;;2.90;0.60;;;14.60;69.90;;;;;;2380059;52;20970;-78
2022/09/28 03:58:39;;;;;;;1.42;0.50;;;14.70;70.00;;;;;;2455533;52;20966;-80
2022/09/28 04:01:11;;;;;;;1.05;0.50;;;14.70;70.00;;;;;;2567823;52;20922;-78
2022/09/28 04:03:40;;;;;;;2.42;0.50;;;14.70;69.90;;;;;;2369970;53;20955;-79
2022/09/28 04:06:07;;;;;;;3.22;0.65;;;14.70;69.90;;;;;;2378590;52;21100;-79
2022/09/28 04:08:33;;;;;;;2.42;0.52;;;14.70;69.90;;;;;;2364263;53;20914;-80
2022/09/28 04:11:00;;;;;;;2.85;0.68;;;14.70;69.90;;;;;;2370182;53;20898;-79
2022/09/28 04:13:27;;;;;;;1.50;0.43;;;14.70;69.90;;;;;;2375681;52;21002;-80
2022/09/28 04:15:55;;;;;;;1.85;0.60;;;14.70;69.90;;;;;;2432113;52;21506;-79
2022/09/28 04:18:21;;;;;;;1.70;0.47;;;14.70;69.90;;;;;;2489306;52;20978;-78
2022/09/28 04:21:07;;;;;;;1.95;0.50;;;14.70;70.00;;;;;;2370961;53;21010;-78
2022/09/28 04:23:34;;;;;;;1.02;0.30;;;14.70;69.80;;;;;;2589758;52;20961;-79
2022/09/28 04:26:04;;;;;;;1.92;0.52;;;14.70;69.80;;;;;;2343331;53;20965;-79
2022/09/28 04:31:19;;;;;;;2.35;0.55;;;14.70;69.70;;;;;;2404708;52;21527;-80
2022/09/28 04:33:46;;;;;;;1.80;0.62;;;14.70;69.50;;;;;;2342633;53;20928;-80
2022/09/28 04:36:14;;;;;;;2.67;0.52;;;14.70;69.40;;;;;;2361054;53;20936;-78
2022/09/28 04:38:41;;;;;;;2.40;0.70;;;14.70;69.40;;;;;;2424726;53;21510;-81
2022/09/28 04:41:17;;;;;;;1.12;0.40;;;14.60;69.40;;;;;;2367975;53;20936;-79
2022/09/28 04:43:46;;;;;;;1.30;0.30;;;14.60;69.50;;;;;;2367301;53;20894;-81
2022/09/28 04:46:12;;;;;;;1.42;0.50;;;14.60;69.70;;;;;;2373371;52;20978;-77
2022/09/28 04:48:39;;;;;;;0.80;0.40;;;14.60;69.80;;;;;;2370839;53;21101;-76
2022/09/28 04:51:06;;;;;;;1.12;0.40;;;14.60;70.00;;;;;;2370470;53;20930;-77
2022/09/28 04:53:34;;;;;;;1.15;0.40;;;14.60;70.10;;;;;;2434074;52;21047;-78
2022/09/28 04:56:02;;;;;;;0.55;0.30;;;14.60;70.20;;;;;;2370093;53;20953;-80
2022/09/28 04:58:28;;;;;;;0.82;0.37;;;14.60;70.20;;;;;;2398491;52;21195;-80
2022/09/28 05:01:04;;;;;;;0.82;0.40;;;14.60;70.30;;;;;;2371617;53;20946;-78
2022/09/28 05:03:30;;;;;;;1.37;0.50;;;14.60;70.30;;;;;;2366198;53;21002;-79
2022/09/28 05:05:57;;;;;;;0.30;0.20;;;14.60;70.30;;;;;;2589305;53;21000;-78
2022/09/28 05:08:25;;;;;;;1.17;0.30;;;14.60;70.30;;;;;;2404406;52;21021;-78
2022/09/28 05:11:00;;;;;;;0.50;0.22;;;14.70;70.50;;;;;;2393918;52;20954;-77
2022/09/28 05:13:27;;;;;;;0.80;0.30;;;14.70;70.40;;;;;;2404782;52;21106;-77
2022/09/28 05:15:54;;;;;;;1.73;0.70;;;14.70;70.40;;;;;;2382173;53;21028;-76
2022/09/28 05:18:23;;;;;;;1.23;0.43;;;14.70;70.50;;;;;;2547925;52;21810;-76
2022/09/28 05:20:49;;;;;;;1.70;0.57;;;14.70;70.50;;;;;;2510015;52;21033;-76
2022/09/28 05:23:24;;;;;;;0.98;0.50;;;14.70;70.50;;;;;;2419643;52;21540;-77
2022/09/28 05:25:50;;;;;;;1.70;0.47;;;14.70;70.40;;;;;;2608756;52;20958;-76
2022/09/28 05:28:21;;;;;;;1.27;0.50;;;14.70;70.50;;;;;;2419612;52;22079;-77
2022/09/28 05:31:03;;;;;;;1.33;0.60;;;14.70;70.50;;;;;;2357927;53;20915;-77
2022/09/28 05:33:30;;;;;;;1.83;0.60;;;14.80;70.50;;;;;;2388763;52;20950;-76
2022/09/28 05:35:56;;;;;;;1.40;0.62;;;14.80;70.50;;;;;;2617727;52;21637;-76
2022/09/28 05:38:27;;;;;;;2.03;0.60;;;14.80;70.50;;;;;;2347391;52;21572;-76
2022/09/28 05:40:53;;;;;;;1.48;0.60;;;14.80;70.50;;;;;;2420957;52;20955;-76
2022/09/28 05:43:19;;;;;;;1.73;0.60;;;14.70;70.40;;;;;;2426903;52;20935;-76
2022/09/28 05:45:46;;;;;;;2.62;0.88;;;14.80;70.50;;;;;;2623545;52;20902;-76
2022/09/28 05:48:14;;;;;;;1.55;0.62;;;14.80;70.50;;;;;;2622230;52;20903;-76
2022/09/28 05:50:41;;;;;;;2.15;0.60;;;14.80;70.50;;;;;;2509746;52;21010;-77
2022/09/28 05:53:11;;;;;;;1.75;0.52;;;14.90;70.60;;;;;;2526708;52;21497;-77
2022/09/28 05:55:38;;;;;;;2.12;0.60;;;14.80;70.50;;;;;;2374896;52;20966;-76
2022/09/28 05:58:21;;;;;;;2.10;0.70;;;14.80;70.50;;;;;;2370536;53;20954;-76
2022/09/28 06:00:53;;;;;;;1.77;0.65;;;14.80;71.10;;;;;;2370347;53;21002;-76
2022/09/28 06:03:19;;;;;;;1.98;0.77;;;14.90;70.60;;;;;;2621385;52;20926;-76
2022/09/28 06:05:47;;;;;;;2.47;0.73;;;14.90;70.60;;;;;;2371437;53;20958;-76
2022/09/28 06:08:56;;;;;;;2.67;0.80;;;14.90;70.70;;;;;;2366986;53;20964;-76
2022/09/28 06:11:25;;;;;;;2.35;0.82;;;14.90;70.50;;;;;;2369407;53;20974;-76
2022/09/28 06:13:54;;;;;;;2.62;0.75;;;14.90;70.60;;;;;;2371476;52;21434;-76
2022/09/28 06:16:21;;;;;;;1.92;0.70;;;14.90;70.60;;;;;;2597115;52;20903;-76
2022/09/28 06:18:49;;;;;;;2.58;0.65;;;14.90;70.60;;;;;;2490578;52;20898;-76
2022/09/28 06:21:16;;;;;;;2.35;0.80;;;15.00;70.80;;;;;;2621469;52;20931;-76
2022/09/28 06:23:51;;;;;;;1.98;0.70;;;14.90;70.70;;;;;;2431374;52;21021;-76
2022/09/28 06:26:26;;;;;;;2.37;0.68;;;14.90;70.70;;;;;;2370688;53;21005;-77
2022/09/28 06:28:52;;;;;;;2.30;0.57;;;15.00;70.70;;;;;;2372888;52;20934;-77
2022/09/28 06:31:22;;;;;;;1.15;0.47;;;15.00;70.80;;;;;;2373027;53;20942;-79
2022/09/28 06:33:48;;;;;;;4.20;0.70;;;15.00;70.80;;;;;;2427230;53;20903;-78
2022/09/28 06:36:18;;;;;;;1.37;0.57;;;15.00;70.80;;;;;;2367230;53;20984;-80
2022/09/28 06:38:44;;;;;;;2.00;0.50;;;15.00;70.80;;;;;;2369111;53;20978;-80
2022/09/28 06:41:11;;;;;;;1.70;0.80;;;15.00;70.80;;;;;;2371059;53;20958;-77
2022/09/28 06:43:43;;;;;;;1.10;0.50;;;15.10;70.90;;;;;;2367792;53;20974;-79
2022/09/28 06:46:13;;;;;;;1.70;0.55;;;15.10;70.80;;;;;;2622694;52;20918;-80
2022/09/28 06:48:39;;;;;;;2.87;0.77;;;15.10;70.80;;;;;;2454298;52;20936;-79
2022/09/28 06:51:05;;;;;;;2.17;0.90;;;15.10;70.80;;;;;;2371585;53;21526;-79
2022/09/28 06:53:33;;;;;;;2.67;1.10;;;15.10;70.80;;;;;;2409796;52;20958;-78
2022/09/28 06:56:06;;;;;;;4.68;1.00;;;15.10;70.80;;;;;;2521390;52;21002;-80
2022/09/28 06:58:32;;;;;;;4.53;2.20;;;15.20;70.90;;;;;;2449840;52;21402;-80
2022/09/28 07:00:58;;;;;;;4.07;1.77;;;15.20;70.90;;;;;;2369090;53;20964;-76
2022/09/28 07:03:25;;;;;;;4.03;1.60;;;15.20;70.90;;;;;;2426334;52;21020;-77
2022/09/28 07:05:52;;;;;;;3.25;1.60;;;15.20;70.90;;;;;;2369650;53;20902;-76
2022/09/28 07:08:23;;;;;;;3.58;1.17;;;15.20;70.90;;;;;;2476597;52;20977;-79
2022/09/28 07:10:56;;;;;;;2.65;0.98;;;15.20;70.80;;;;;;2368645;53;20926;-76
2022/09/28 07:13:24;;;;;;;2.60;0.95;;;15.30;70.90;;;;;;2366235;53;21465;-79
2022/09/28 07:16:07;;;;;;;2.83;0.90;;;15.30;70.90;;;;;;2399521;52;20945;-77
2022/09/28 07:18:33;;;;;;;1.80;0.70;;;15.30;70.80;;;;;;2492996;52;20960;-80
2022/09/28 07:21:06;;;;;;;2.03;0.70;;;15.30;70.90;;;;;;2615773;52;20990;-78
2022/09/28 07:23:32;;;;;;;1.55;0.60;;;15.40;71.00;;;;;;2618625;52;21514;-81
2022/09/28 07:26:15;;;;;;;1.90;0.70;;;15.40;71.00;;;;;;2370455;53;20991;-78
2022/09/28 07:28:43;;;;;;;1.40;0.60;;;15.40;70.80;;;;;;2560741;52;20950;-76
2022/09/28 07:31:10;;;;;;;2.03;0.40;;;15.40;70.90;;;;;;2620722;52;20910;-76
2022/09/28 07:33:58;;;;;;;1.73;0.60;;;15.40;70.90;;;;;;2366018;54;20948;-76
2022/09/28 07:36:24;;;;;;;3.33;0.60;;;15.50;70.80;;;;;;2368899;53;20923;-76
2022/09/28 07:39:02;;;;;;;1.35;0.50;;;15.50;70.80;;;;;;2369859;53;21034;-80
2022/09/28 07:41:31;;;;;;;1.00;0.43;;;15.50;70.80;;;;;;2354208;53;21062;-77
2022/09/28 07:44:06;;;;;;;1.33;0.50;;;15.50;70.80;;;;;;2618663;52;20998;-80
2022/09/28 07:46:35;;;;;;;1.48;0.50;;;15.50;70.80;;;;;;2369494;53;20930;-78
2022/09/28 07:49:04;;;;;;;1.12;0.47;;;15.60;70.90;;;;;;2373065;52;20957;-79
2022/09/28 07:51:32;;;;;;;0.77;0.35;;;15.50;70.80;;;;;;2440414;52;20941;-77
2022/09/28 07:54:00;;;;;;;1.87;0.50;;;15.50;70.90;;;;;;2561147;52;20993;-78
2022/09/28 07:56:29;;;;;;;2.12;0.50;;;15.60;71.00;;;;;;2369382;53;20901;-77
2022/09/28 07:58:56;;;;;;;2.40;0.80;;;15.60;71.10;;;;;;2370791;53;21486;-79
2022/09/28 08:01:24;;;;;;;1.90;0.70;;;15.60;71.10;;;;;;2370540;53;20910;-80
2022/09/28 08:03:54;;;;;;;2.03;0.70;;;15.60;71.00;;;;;;2372370;53;20918;-78
2022/09/28 08:06:21;;;;;;;2.50;0.80;;;15.70;71.00;;;;;;2381337;52;20898;-76
2022/09/28 08:09:03;;;;;;;2.10;0.80;;;15.70;71.00;;;;;;2369010;53;20970;-77
2022/09/28 08:11:29;;;;;;;2.90;0.83;;;15.70;71.00;;;;;;2456400;52;21751;-78
2022/09/28 08:13:59;;;;;;;2.33;0.90;;;15.70;71.10;;;;;;2377599;52;20966;-79
2022/09/28 08:16:26;;;;;;;2.55;0.93;;;15.70;71.20;;;;;;2370255;53;20906;-77
2022/09/28 08:18:53;;;;;;;1.70;0.82;;;15.80;71.20;;;;;;2585396;52;20974;-76
2022/09/28 08:24:24;;;;;;;3.28;1.10;;;15.90;71.20;;;;;;2371035;53;20934;-80
2022/09/28 08:26:52;;;;;;;2.00;0.70;;;15.90;71.10;;;;;;2383113;52;21047;-79
2022/09/28 08:29:20;;;;;;;2.87;0.88;;;15.90;71.20;;;;;;2387025;52;20954;-76
2022/09/28 08:31:47;;;;;;;3.03;0.90;;;15.90;71.20;;;;;;2623706;52;20906;-78
2022/09/28 08:34:13;;;;;;;1.92;0.62;;;15.90;71.10;;;;;;2556536;52;20962;-77
2022/09/28 08:36:43;;;;;;;1.85;0.60;;;16.00;71.20;;;;;;2404157;52;20937;-76
2022/09/28 08:39:11;;;;;;;2.92;0.93;;;16.00;71.10;;;;;;2505976;52;20981;-77
2022/09/28 08:41:44;;;;;;;1.50;0.70;;;16.10;71.20;;;;;;2410997;52;20927;-77
2022/09/28 08:44:24;;;;;;;2.87;1.08;;;16.10;71.10;;;;;;2622816;52;20938;-77
2022/09/28 08:46:54;;;;;;;2.50;0.80;;;16.10;71.00;;;;;;2366174;54;20996;-80
2022/09/28 08:49:37;;;;;;;2.92;0.93;;;16.10;70.90;;;;;;2369682;53;21533;-77
2022/09/28 08:52:12;;;;;;;1.87;0.60;;;16.10;70.90;;;;;;2606720;52;20993;-78
2022/09/28 08:55:30;;;;;;;2.00;0.50;;;16.10;70.90;;;;;;2622782;52;20923;-77
2022/09/28 08:58:31;;;;;;;1.85;0.62;;;16.20;70.50;;;;;;2369911;53;21211;-77
2022/09/28 09:00:58;;;;;;;2.22;0.88;;;16.20;70.40;;;;;;2371100;53;20930;-77
2022/09/28 09:03:33;;;;;;;2.03;0.75;;;16.20;70.80;;;;;;2364006;53;21830;-79
2022/09/28 09:07:01;;;;;;;2.87;0.80;;;16.30;70.70;;;;;;2370876;53;21029;-77
2022/09/28 09:10:10;;;;;;;1.80;0.70;;;16.20;70.30;;;;;;2618373;52;20998;-77
2022/09/28 09:12:46;;;;;;;3.28;0.82;;;16.20;70.20;;;;;;2371082;53;20922;-77
2022/09/28 09:15:46;;;;;;;1.08;0.45;;;16.20;70.20;;;;;;2623471;52;20921;-77
2022/09/28 09:22:04;;;;;;;1.40;0.50;;;16.20;69.90;;;;;;2361699;54;21031;-77
2022/09/28 09:26:19;;;;;;;1.08;0.45;;;16.30;70.00;;;;;;2372234;52;21032;-77
2022/09/28 09:38:51;;;;;;;2.95;0.60;;;16.30;69.60;;;;;;2392647;52;20944;-80
2022/09/28 09:41:48;;;;;;;1.70;0.50;;;16.30;69.40;;;;;;2368280;53;21010;-78
2022/09/28 09:44:37;;;;;;;2.30;0.60;;;16.30;69.30;;;;;;2621605;52;20902;-77
2022/09/28 09:47:11;;;;;;;2.15;0.80;;;16.20;69.40;;;;;;2534982;52;21487;-81
2022/09/28 09:49:40;;;;;;;1.87;0.70;;;16.20;69.50;;;;;;2370892;53;20909;-77
2022/09/28 09:53:56;;;;;;;2.42;0.70;;;16.20;69.40;;;;;;2370354;53;21353;-77
2022/09/28 09:56:36;;;;;;;2.40;0.60;;;16.20;69.00;;;;;;2621823;52;20997;-77
2022/09/28 09:59:09;;;;;;;2.30;0.70;;;16.20;69.20;;;;;;2465121;52;20898;-78
2022/09/28 10:01:40;;;;;;;1.55;0.60;;;16.20;69.00;;;;;;2422517;52;20942;-77
2022/09/28 10:04:42;;;;;;;1.98;0.70;;;16.20;69.00;;;;;;2612464;52;21053;-77
2022/09/28 10:07:08;;;;;;;3.45;0.70;;;16.20;68.50;;;;;;2367034;53;20980;-76
2022/09/28 10:09:40;;;;;;;3.47;0.85;;;16.20;69.10;;;;;;2604553;53;20925;-76
2022/09/28 10:12:11;;;;;;;2.70;0.90;;;16.20;69.00;;;;;;2359213;53;21429;-77
2022/09/28 10:14:37;;;;;;;3.87;0.88;;;16.20;69.00;;;;;;2404030;52;21156;-75
2022/09/28 10:17:04;;;;;;;1.45;0.73;;;16.10;68.90;;;;;;2615959;52;20974;-78
2022/09/28 10:19:31;;;;;;;3.37;0.90;;;16.10;68.90;;;;;;2368970;53;20984;-75
2022/09/28 10:22:38;;;;;;;2.12;0.75;;;16.20;69.00;;;;;;2367271;53;20902;-76
2022/09/28 10:25:07;;;;;;;2.42;0.60;;;16.20;68.30;;;;;;2368677;53;20982;-75
2022/09/28 10:27:34;;;;;;;3.53;0.77;;;16.20;68.70;;;;;;2370970;53;20902;-77
2022/09/28 10:30:40;;;;;;;1.90;0.80;;;16.20;68.80;;;;;;2370199;53;20923;-76
2022/09/28 10:33:29;;;;;;;2.60;0.77;;;16.20;68.00;;;;;;2613705;52;21478;-77
2022/09/28 10:35:55;;;;;;;4.05;0.98;;;16.20;68.30;;;;;;2370661;53;20907;-78
2022/09/28 10:38:23;;;;;;;3.47;1.17;;;16.20;68.70;;;;;;2417631;52;20945;-76
2022/09/28 10:41:08;;;;;;;3.20;1.20;;;16.20;69.40;;;;;;2370999;53;21012;-75
2022/09/28 10:43:38;;;;;;;2.45;1.00;;;16.20;68.70;;;;;;2484132;52;20913;-76
2022/09/28 10:46:29;;;;;;;3.92;1.00;;;16.30;68.80;;;;;;2429887;52;20961;-77
2022/09/28 10:49:15;;;;;;;3.30;0.90;;;16.30;68.20;;;;;;2578641;52;20923;-76
2022/09/28 10:51:48;;;;;;;3.15;0.90;;;16.30;68.10;;;;;;2369867;53;20934;-79
2022/09/28 10:54:16;;;;;;;2.62;0.88;;;16.30;68.50;;;;;;2409337;52;20943;-76
2022/09/28 10:56:42;;;;;;;2.20;0.70;;;16.30;68.50;;;;;;2361110;54;20936;-77
2022/09/28 11:05:59;;;;;;;2.87;0.70;;;16.30;68.50;;;;;;2371125;53;20907;-77
2022/09/28 11:08:28;;;;;;;2.55;0.50;;;16.40;67.90;;;;;;2370038;53;21033;-77
2022/09/28 11:11:11;;;;;;;3.00;0.70;;;16.40;68.40;;;;;;2536721;52;20934;-76
2022/09/28 11:13:43;;;;;;;1.92;0.60;;;16.40;68.10;;;;;;2577028;52;20948;-78
2022/09/28 11:16:33;;;;;;;2.33;0.70;;;16.50;68.60;;;;;;2351600;53;20955;-76
2022/09/28 11:29:03;;;;;;;4.18;0.80;;;16.50;68.50;;;;;;2344311;53;20908;-77
2022/09/28 11:31:30;;;;;;;1.45;0.60;;;16.50;68.70;;;;;;2344115;53;21329;-77
2022/09/28 11:34:58;;;;;;;3.00;0.77;;;16.60;68.50;;;;;;2377517;52;20961;-76
2022/09/28 11:39:00;;;;;;;2.40;0.75;;;16.60;67.70;;;;;;2588986;52;20933;-78
2022/09/28 11:41:51;;;;;;;2.65;0.80;;;16.70;68.40;;;;;;2343084;53;20937;-78
2022/09/28 11:48:16;;;;;;;2.25;0.60;;;16.70;67.60;;;;;;2342795;53;20991;-76
2022/09/28 11:51:02;;;;;;;2.05;0.60;;;16.70;67.40;;;;;;2341548;53;20933;-76
2022/09/28 11:53:40;;;;;;;2.40;0.65;;;16.80;67.90;;;;;;2340799;53;20992;-77
2022/09/28 11:58:10;;;;;;;3.33;0.85;;;16.70;67.70;;;;;;2354047;53;20897;-75
2022/09/28 12:03:53;;;;;;;2.83;0.77;;;16.70;67.50;;;;;;2513137;52;20920;-77
2022/09/28 12:06:26;;;;;;;2.72;0.55;;;16.80;67.60;;;;;;2342633;53;21790;-76
2022/09/28 12:08:55;;;;;;;1.83;0.60;;;16.70;67.90;;;;;;2342254;53;20980;-77
2022/09/28 12:11:28;;;;;;;2.30;0.70;;;16.80;68.20;;;;;;2402221;52;20984;-76
2022/09/28 12:13:56;;;;;;;1.70;0.73;;;16.80;68.20;;;;;;2343279;53;21421;-76
2022/09/28 12:16:39;;;;;;;3.05;0.88;;;16.80;68.30;;;;;;2343243;53;20976;-76
2022/09/28 12:19:49;;;;;;;1.95;0.60;;;16.80;67.80;;;;;;2342302;53;21007;-77
2022/09/28 12:22:39;;;;;;;3.90;1.00;;;16.80;68.20;;;;;;2342406;53;21477;-77
2022/09/28 12:25:11;;;;;;;2.47;0.80;;;16.80;68.00;;;;;;2343491;53;20964;-78
2022/09/28 12:27:44;;;;;;;;;;;16.80;68.00;;;;;;2345732;53;20992;-77
2022/09/28 12:30:20;;;;;;;2.80;1.00;;;16.90;67.50;;;;;;2370882;53;20061;-78
2022/09/28 12:33:20;;;;;;;2.55;0.90;;;16.80;67.60;;;;;;2342985;53;21339;-75
2022/09/28 12:36:13;;;;;;;3.10;1.00;;;16.80;67.20;;;;;;2359629;53;21833;-76
2022/09/28 12:39:02;;;;;;;2.45;0.68;;;16.70;67.20;;;;;;2577153;52;20937;-78
2022/09/28 12:47:58;;;;;;;3.47;0.82;;;16.80;67.30;;;;;;2342067;53;21471;-78
2022/09/28 12:51:48;;;;;;;1.87;0.70;;;16.80;67.20;;;;;;2343260;53;21020;-78
2022/09/28 12:55:12;;;;;;;1.95;0.60;;;16.80;66.80;;;;;;2403045;52;20944;-78
2022/09/28 12:58:15;;;;;;;2.67;0.73;;;16.80;67.00;;;;;;2343400;53;20964;-76
2022/09/28 13:02:05;;;;;;;3.08;0.73;;;16.80;67.10;;;;;;2422758;52;20941;-77
2022/09/28 13:06:09;;;;;;;2.42;0.75;;;16.80;66.90;;;;;;2339055;54;20960;-78
2022/09/28 13:15:34;;;;;;;2.67;0.80;;;16.80;67.50;;;;;;2343116;53;21060;-78
2022/09/28 13:18:37;;;;;;;2.45;0.50;;;16.80;67.00;;;;;;2453182;52;21253;-77
2022/09/28 13:21:27;;;;;;;2.20;0.62;;;16.80;67.20;;;;;;2347470;53;20985;-76
2022/09/28 13:23:54;;;;;;;3.30;0.93;;;16.80;67.10;;;;;;2342502;53;20921;-76
2022/09/28 13:26:38;;;;;;;2.85;0.80;;;16.80;67.70;;;;;;2343098;53;20956;-75
2022/09/28 13:29:14;;;;;;;1.70;0.68;;;16.80;67.60;;;;;;2459539;52;20960;-75
2022/09/28 13:31:52;;;;;;;2.72;0.90;;;16.70;67.50;;;;;;2476638;52;20928;-76
2022/09/28 13:34:26;;;;;;;2.62;0.65;;;16.70;67.50;;;;;;2342629;53;21031;-77
2022/09/28 13:37:24;;;;;;;1.92;0.70;;;16.80;67.60;;;;;;2417219;53;21032;-78
2022/09/28 13:39:58;;;;;;;3.08;0.70;;;16.80;67.10;;;;;;2339643;54;20937;-77
2022/09/28 13:42:41;;;;;;;1.80;0.80;;;16.70;67.30;;;;;;2362004;53;21449;-78
2022/09/28 13:45:27;;;;;;;2.97;0.75;;;16.70;67.10;;;;;;2352091;53;21010;-77
2022/09/28 13:48:05;;;;;;;3.12;0.80;;;16.70;66.60;;;;;;2360740;53;20984;-76
2022/09/28 13:50:56;;;;;;;2.30;0.70;;;16.70;67.00;;;;;;2421605;52;20971;-77
2022/09/28 14:00:01;;;;;;;2.25;0.70;;;16.70;67.00;;;;;;2369881;53;21013;-77
2022/09/28 14:03:00;;;;;;;1.40;0.50;;;16.60;66.40;;;;;;2395005;52;20919;-77
2022/09/28 14:05:51;;;;;;;2.72;0.80;;;16.60;66.90;;;;;;2622180;52;21513;-79
2022/09/28 14:12:08;;;;;;;1.98;0.70;;;16.60;67.00;;;;;;2514132;52;21025;-76
2022/09/28 14:14:50;;;;;;;1.90;0.60;;;16.50;66.70;;;;;;2486263;52;20950;-77
2022/09/28 14:18:07;;;;;;;2.95;0.80;;;16.50;67.10;;;;;;2387080;53;20920;-76
2022/09/28 14:20:34;;;;;;;1.35;0.62;;;16.50;66.80;;;;;;2560218;52;20958;-79
2022/09/28 14:23:51;;;;;;;2.87;0.68;;;16.40;67.30;;;;;;2398040;52;21095;-78
2022/09/28 14:26:43;;;;;;;2.30;0.70;;;16.40;66.70;;;;;;2368745;53;20946;-76
2022/09/28 14:42:25;;;;;;;2.25;0.73;;;16.50;67.30;;;;;;2366653;53;20950;-76
2022/09/28 14:47:36;;;;;;;2.65;0.47;;;16.50;66.80;;;;;;2409932;52;20962;-76
2022/09/28 14:50:25;;;;;;;1.67;0.50;;;16.50;66.80;;;;;;2352283;53;20926;-77
2022/09/28 14:52:55;;;;;;;0.68;0.30;;;16.40;67.00;;;;;;2370693;53;21383;-76
2022/09/28 14:55:27;;;;;;;1.77;0.60;;;16.40;67.30;;;;;;2369530;53;21022;-76
2022/09/28 14:57:56;;;;;;;2.50;0.80;;;16.40;67.30;;;;;;2370184;53;21069;-76
2022/09/28 15:00:28;;;;;;;2.53;0.73;;;16.40;67.50;;;;;;2370485;53;20930;-76
2022/09/28 15:03:01;;;;;;;1.67;0.62;;;16.40;67.60;;;;;;2371413;53;21022;-77
2022/09/28 15:05:45;;;;;;;2.12;0.60;;;16.40;67.70;;;;;;2379894;52;20954;-76
2022/09/28 15:08:34;;;;;;;0.85;0.37;;;16.40;67.60;;;;;;2370114;53;22023;-79
2022/09/28 15:11:10;;;;;;;1.98;0.70;;;16.40;67.50;;;;;;2476410;52;22643;-75
2022/09/28 15:13:39;;;;;;;1.70;0.55;;;16.40;67.40;;;;;;2370882;53;20914;-77
2022/09/28 15:16:10;;;;;;;1.15;0.50;;;16.40;67.60;;;;;;2370074;53;21002;-76
2022/09/28 15:19:16;;;;;;;0.93;0.40;;;16.40;67.50;;;;;;2520793;52;20914;-78
2022/09/28 15:21:42;;;;;;;1.62;0.70;;;16.40;67.30;;;;;;2471438;52;21344;-77
2022/09/28 15:24:34;;;;;;;2.20;0.52;;;16.40;67.50;;;;;;2470019;52;20902;-77